Skip Navigation LinksHome page > Weather > Current weather Skip Navigation Links

Current Weather

La Guardia, New York

For information only: do not use for flight planning or navigation.
Latest weather
Observation time Monday, December 6, 2021 10:15 AM EST
Local time Monday, December 6, 2021 10:35 AM EST
Flight conditions Marginal Visual Meteorological Conditions
Winds
Wind direction South (190°)
Wind speed 10 mph
Visibility 10 mi.
Sky condition
Ceiling 2,900 ft. overcast
Cloud layer few clouds 800 ft.
Cloud layer few clouds 1,300 ft.
Cloud layer overcast 2,900 ft.
Temperature 54°F
Dewpoint 49°F
Altimeter 29.90 in.Hg
Derived measurements
Relative humidity 83%
Density altitude -119 ft.
Remarks
Automated weather observing station with precipitation discriminator.
METAR KLGA 061515Z 19009KT 10SM FEW008 FEW013 OVC029 12/09 A2990 RMK AO2 T01220094

Settings

Location code

InnerDrive.Weather 4.0.6770.0 Release CLR 4.0.30319.42000
Copyright ©2018 Inner Drive Technology. All rights reserved. Portions Copyright ©1986-2018 David Braverman.

Find weather

Site navigation


Skip Navigation Links

Place info

Page info

PayPal - The safer, easier way to pay online!

Return home.

Copyright ©2021 Inner Drive Technology. Purveyors of fine, hand-crafted computer software. Page printed 2021-12-06T15:35:49 UTC.